createdAt,value
2022-08-19T00:02:04.143Z,23.00
2022-08-19T00:04:37.167Z,23.03
2022-08-19T00:07:06.644Z,22.93
2022-08-19T00:09:34.369Z,22.95
2022-08-19T00:12:02.090Z,23.00
2022-08-19T00:14:32.247Z,22.97
2022-08-19T00:16:59.649Z,22.97
2022-08-19T00:19:26.513Z,22.89
2022-08-19T00:21:53.992Z,22.86
2022-08-19T00:24:20.894Z,22.92
2022-08-19T00:26:47.790Z,22.80
2022-08-19T00:29:18.634Z,22.75
2022-08-19T00:31:46.935Z,22.74
2022-08-19T00:34:15.767Z,22.66
2022-08-19T00:36:43.946Z,22.67
2022-08-19T00:39:11.680Z,22.65
2022-08-19T00:41:38.775Z,22.57
2022-08-19T00:44:13.655Z,22.55
2022-08-19T00:46:44.328Z,22.53
2022-08-19T00:49:26.051Z,22.51
2022-08-19T00:52:04.373Z,22.51
2022-08-19T00:54:32.457Z,22.38
2022-08-19T00:57:00.653Z,22.36
2022-08-19T00:59:58.828Z,22.41
2022-08-19T01:02:18.029Z,22.31
2022-08-19T01:04:44.893Z,22.42
2022-08-19T01:07:15.021Z,22.38
2022-08-19T01:09:44.295Z,22.35
2022-08-19T01:12:11.187Z,22.27
2022-08-19T01:14:41.236Z,22.36
2022-08-19T01:17:12.338Z,22.34
2022-08-19T01:19:44.659Z,22.31
2022-08-19T01:22:33.667Z,22.32
2022-08-19T01:25:01.804Z,22.32
2022-08-19T01:27:43.680Z,22.32
2022-08-19T01:30:16.507Z,22.31
2022-08-19T01:32:44.218Z,22.29
2022-08-19T01:35:14.320Z,22.24
2022-08-19T01:37:52.856Z,22.13
2022-08-19T01:40:22.175Z,22.21
2022-08-19T01:42:50.994Z,22.10
2022-08-19T01:45:20.474Z,22.19
2022-08-19T01:47:51.592Z,22.19
2022-08-19T01:50:28.660Z,22.10
2022-08-19T01:53:02.419Z,22.13
2022-08-19T01:55:37.016Z,22.06
2022-08-19T01:58:16.527Z,22.11
2022-08-19T02:00:44.252Z,22.10
2022-08-19T02:03:12.244Z,21.94
2022-08-19T02:05:40.623Z,22.02
2022-08-19T02:08:08.474Z,22.08
2022-08-19T02:10:40.520Z,22.09
2022-08-19T02:13:07.820Z,22.09
2022-08-19T02:15:34.823Z,22.01
2022-08-19T02:18:01.659Z,22.01
2022-08-19T02:20:28.489Z,22.01
2022-08-19T02:22:55.366Z,22.03
2022-08-19T02:25:22.227Z,21.93
2022-08-19T02:27:49.049Z,22.06
2022-08-19T02:30:19.935Z,22.02
2022-08-19T02:32:46.870Z,22.00
2022-08-19T02:35:15.390Z,22.01
2022-08-19T02:38:02.243Z,21.93
2022-08-19T02:40:33.937Z,22.00
2022-08-19T02:43:01.907Z,21.95
2022-08-19T02:45:33.803Z,22.03
2022-08-19T02:48:00.674Z,21.96
2022-08-19T02:50:30.219Z,22.03
2022-08-19T02:52:57.071Z,22.00
2022-08-19T02:55:24.013Z,21.98
2022-08-19T02:57:50.843Z,22.00
2022-08-19T03:00:17.827Z,21.93
2022-08-19T03:02:44.671Z,21.94
2022-08-19T03:05:11.790Z,21.95
2022-08-19T03:07:39.058Z,21.96
2022-08-19T03:10:07.339Z,21.99
2022-08-19T03:12:38.646Z,21.94
2022-08-19T03:15:08.721Z,22.02
2022-08-19T03:17:36.340Z,21.89
2022-08-19T03:20:04.940Z,21.99
2022-08-19T03:22:31.822Z,21.94
2022-08-19T03:25:00.050Z,21.87
2022-08-19T03:27:31.204Z,21.79
2022-08-19T03:30:01.398Z,21.88
2022-08-19T03:32:32.983Z,21.90
2022-08-19T03:35:00.334Z,21.89
2022-08-19T03:37:27.510Z,21.84
2022-08-19T03:39:54.386Z,21.95
2022-08-19T03:42:32.952Z,21.90
2022-08-19T03:45:08.584Z,21.82
2022-08-19T03:47:35.429Z,21.91
2022-08-19T03:50:03.061Z,21.86
2022-08-19T03:52:29.893Z,21.74
2022-08-19T03:54:56.741Z,21.77
2022-08-19T03:57:24.449Z,21.82
2022-08-19T04:00:12.735Z,21.80
2022-08-19T04:02:42.861Z,21.67
2022-08-19T04:05:27.584Z,21.66
2022-08-19T04:07:54.955Z,21.65
2022-08-19T04:10:21.847Z,21.66
2022-08-19T04:12:48.706Z,21.58
2022-08-19T04:15:16.396Z,21.63
2022-08-19T04:17:43.244Z,21.62
2022-08-19T04:20:10.915Z,21.64
2022-08-19T04:22:37.766Z,21.63
2022-08-19T04:25:04.975Z,21.65
2022-08-19T04:27:32.189Z,21.68
2022-08-19T04:29:59.024Z,21.66
2022-08-19T04:32:25.874Z,21.66
2022-08-19T04:35:03.192Z,21.54
2022-08-19T04:37:40.026Z,21.62
2022-08-19T04:40:27.014Z,21.63
2022-08-19T04:42:54.552Z,21.52
2022-08-19T04:45:22.985Z,21.61
2022-08-19T04:47:58.799Z,21.67
2022-08-19T04:50:37.125Z,21.60
2022-08-19T04:53:04.126Z,21.67
2022-08-19T04:55:33.365Z,21.63
2022-08-19T04:58:03.379Z,21.56
2022-08-19T05:00:30.246Z,21.65
2022-08-19T05:02:57.079Z,21.59
2022-08-19T05:05:23.899Z,21.65
2022-08-19T05:07:50.790Z,21.54
2022-08-19T05:10:17.860Z,21.55
2022-08-19T05:12:44.710Z,21.62
2022-08-19T05:15:12.046Z,21.60
2022-08-19T05:17:39.419Z,21.53
2022-08-19T05:20:27.781Z,21.58
2022-08-19T05:22:55.089Z,21.48
2022-08-19T05:25:23.156Z,21.52
2022-08-19T05:27:50.370Z,21.46
2022-08-19T05:30:18.145Z,21.56
2022-08-19T05:32:45.452Z,21.56
2022-08-19T05:35:13.048Z,21.53
2022-08-19T05:37:43.284Z,21.62
2022-08-19T05:40:11.103Z,21.62
2022-08-19T05:42:38.916Z,21.64
2022-08-19T05:45:07.085Z,21.67
2022-08-19T05:47:34.048Z,21.65
2022-08-19T05:50:04.921Z,21.65
2022-08-19T05:52:32.370Z,21.65
2022-08-19T05:55:00.360Z,21.59
2022-08-19T05:57:29.765Z,21.58
2022-08-19T05:59:58.795Z,21.56
2022-08-19T06:02:27.781Z,21.57
2022-08-19T06:04:54.631Z,21.63
2022-08-19T06:07:21.665Z,21.53
2022-08-19T06:09:59.890Z,21.62
2022-08-19T06:12:29.864Z,21.66
2022-08-19T06:15:00.990Z,21.60
2022-08-19T06:17:31.484Z,21.66
2022-08-19T06:19:59.203Z,21.63
2022-08-19T06:22:26.149Z,21.68
2022-08-19T06:24:54.631Z,21.60
2022-08-19T06:27:22.287Z,21.67
2022-08-19T06:29:49.687Z,21.66
2022-08-19T06:32:19.536Z,21.57
2022-08-19T06:34:46.478Z,21.55
2022-08-19T06:37:13.722Z,21.64
2022-08-19T06:39:44.021Z,21.57
2022-08-19T06:42:14.206Z,21.54
2022-08-19T06:44:43.833Z,21.66
2022-08-19T06:47:23.657Z,21.55
2022-08-19T06:50:05.442Z,21.62
2022-08-19T06:52:36.662Z,21.51
2022-08-19T06:55:06.744Z,21.58
2022-08-19T06:57:34.898Z,21.52
2022-08-19T07:00:02.352Z,21.59
2022-08-19T07:02:29.402Z,21.53
2022-08-19T07:04:59.053Z,21.45
2022-08-19T07:07:26.006Z,21.36
2022-08-19T07:09:59.302Z,21.39
2022-08-19T07:12:35.865Z,21.28
2022-08-19T07:15:06.710Z,21.34
2022-08-19T07:17:34.458Z,21.31
2022-08-19T07:20:07.082Z,21.38
2022-08-19T07:22:37.588Z,21.34
2022-08-19T07:25:07.177Z,21.44
2022-08-19T07:27:34.851Z,21.33
2022-08-19T07:30:02.151Z,21.39
2022-08-19T07:32:29.170Z,21.37
2022-08-19T07:34:56.451Z,21.35
2022-08-19T07:37:31.964Z,21.34
2022-08-19T07:40:00.479Z,21.32
2022-08-19T07:42:29.717Z,21.39
2022-08-19T07:44:56.540Z,21.29
2022-08-19T07:47:47.732Z,21.35
2022-08-19T07:50:12.487Z,21.33
2022-08-19T07:52:40.447Z,21.33
2022-08-19T07:55:40.403Z,21.31
2022-08-19T07:57:58.158Z,21.12
2022-08-19T08:00:25.326Z,21.20
2022-08-19T08:02:55.834Z,21.22
2022-08-19T08:05:44.151Z,21.31
2022-08-19T08:08:47.327Z,21.23
2022-08-19T08:11:19.964Z,21.34
2022-08-19T08:14:01.083Z,21.36
2022-08-19T08:16:39.766Z,21.32
2022-08-19T08:19:25.328Z,21.39
2022-08-19T08:21:55.221Z,21.30
2022-08-19T08:24:22.094Z,21.35
2022-08-19T08:26:57.491Z,21.30
2022-08-19T08:29:26.101Z,21.24
2022-08-19T08:31:58.628Z,21.27
2022-08-19T08:34:26.813Z,21.38
2022-08-19T08:36:53.727Z,21.37
2022-08-19T08:39:22.546Z,21.34
2022-08-19T08:42:23.873Z,21.32
2022-08-19T08:45:00.238Z,21.32
2022-08-19T08:47:33.692Z,21.39
2022-08-19T08:50:13.593Z,21.33
2022-08-19T08:52:52.839Z,21.48
2022-08-19T08:55:26.477Z,21.51
2022-08-19T08:58:07.658Z,21.52
2022-08-19T09:00:42.257Z,21.38
2022-08-19T09:03:34.783Z,21.41
2022-08-19T09:06:11.991Z,21.51
2022-08-19T09:09:03.982Z,21.53
2022-08-19T09:11:42.386Z,21.50
2022-08-19T09:14:51.064Z,21.43
2022-08-19T09:17:29.146Z,21.44
2022-08-19T09:20:09.521Z,21.53
2022-08-19T09:22:44.834Z,21.43
2022-08-19T09:25:18.117Z,21.53
2022-08-19T09:27:55.660Z,21.53
2022-08-19T09:30:40.329Z,21.52
2022-08-19T09:33:08.179Z,21.50
2022-08-19T09:35:50.129Z,21.53
2022-08-19T09:38:21.866Z,21.53
2022-08-19T09:40:50.472Z,21.53
2022-08-19T09:43:32.838Z,21.49
2022-08-19T09:46:01.704Z,21.55
2022-08-19T09:48:28.650Z,21.60
2022-08-19T09:50:55.508Z,21.51
2022-08-19T09:53:25.433Z,21.59
2022-08-19T09:55:53.134Z,21.42
2022-08-19T09:58:23.503Z,21.66
2022-08-19T10:00:54.630Z,21.65
2022-08-19T10:03:21.686Z,21.61
2022-08-19T10:05:55.490Z,21.66
2022-08-19T10:08:36.283Z,21.65
2022-08-19T10:11:28.083Z,21.60
2022-08-19T10:13:52.678Z,21.50
2022-08-19T10:16:26.040Z,21.61
2022-08-19T10:18:58.736Z,21.48
2022-08-19T10:21:32.501Z,21.56
2022-08-19T10:24:04.996Z,21.53
2022-08-19T10:26:38.244Z,21.56
2022-08-19T10:29:06.572Z,21.53
2022-08-19T10:32:00.878Z,21.56
2022-08-19T10:34:27.830Z,21.57
2022-08-19T10:37:01.164Z,21.54
2022-08-19T10:39:31.472Z,21.57
2022-08-19T10:41:59.816Z,21.56
2022-08-19T10:44:32.310Z,21.59
2022-08-19T10:47:00.150Z,21.61
2022-08-19T10:49:28.145Z,21.60
2022-08-19T10:52:18.742Z,21.44
2022-08-19T10:55:08.395Z,21.50
2022-08-19T10:57:59.303Z,21.57
2022-08-19T11:00:25.463Z,21.57
2022-08-19T11:02:52.923Z,21.63
2022-08-19T11:05:20.458Z,21.55
2022-08-19T11:07:52.740Z,21.37
2022-08-19T11:10:21.782Z,21.32
2022-08-19T11:12:49.403Z,21.32
2022-08-19T11:15:16.919Z,21.25
2022-08-19T11:17:44.761Z,21.30
2022-08-19T11:20:14.144Z,21.32
2022-08-19T11:22:42.249Z,21.12
2022-08-19T11:25:11.810Z,21.22
2022-08-19T11:27:43.179Z,21.18
2022-08-19T11:30:13.565Z,21.17
2022-08-19T11:32:45.932Z,21.19
2022-08-19T11:35:17.029Z,21.17
2022-08-19T11:37:43.882Z,21.12
2022-08-19T11:40:11.937Z,21.16
2022-08-19T11:42:57.115Z,21.09
2022-08-19T11:45:25.935Z,21.19
2022-08-19T11:47:53.541Z,21.27
2022-08-19T11:50:21.421Z,21.29
2022-08-19T11:52:50.584Z,21.31
2022-08-19T11:55:17.657Z,21.29
2022-08-19T11:57:44.645Z,21.24
2022-08-19T12:00:14.059Z,21.37
2022-08-19T12:02:41.464Z,21.26
2022-08-19T12:05:12.234Z,21.34
2022-08-19T12:07:40.641Z,21.45
2022-08-19T12:10:08.427Z,21.47
2022-08-19T12:12:35.556Z,21.52
2022-08-19T12:15:03.296Z,21.53
2022-08-19T12:17:31.755Z,21.53
2022-08-19T12:19:58.819Z,21.55
2022-08-19T12:22:25.923Z,21.47
2022-08-19T12:24:54.125Z,21.55
2022-08-19T12:27:32.249Z,21.56
2022-08-19T12:30:12.281Z,21.55
2022-08-19T12:32:39.801Z,21.53
2022-08-19T12:35:09.068Z,21.54
2022-08-19T12:37:36.117Z,21.56
2022-08-19T12:40:04.319Z,21.56
2022-08-19T12:42:31.415Z,21.51
2022-08-19T12:44:58.355Z,21.57
2022-08-19T12:47:27.328Z,21.40
2022-08-19T12:49:56.014Z,21.55
2022-08-19T12:52:27.979Z,21.61
2022-08-19T12:54:58.297Z,21.58
2022-08-19T12:57:32.230Z,21.53
2022-08-19T13:00:05.885Z,21.62
2022-08-19T13:02:34.297Z,21.55
2022-08-19T13:05:09.282Z,21.62
2022-08-19T13:07:38.201Z,21.58
2022-08-19T13:10:10.117Z,21.40
2022-08-19T13:12:37.103Z,21.54
2022-08-19T13:15:10.662Z,21.39
2022-08-19T13:17:39.516Z,21.59
2022-08-19T13:20:10.081Z,21.52
2022-08-19T13:22:37.792Z,21.53
2022-08-19T13:25:07.285Z,21.52
2022-08-19T13:27:34.625Z,21.35
2022-08-19T13:30:20.965Z,21.46
2022-08-19T13:33:06.149Z,21.47
2022-08-19T13:35:33.045Z,21.32
2022-08-19T13:38:01.757Z,21.46
2022-08-19T13:40:30.074Z,21.31
2022-08-19T13:42:57.054Z,21.34
2022-08-19T13:45:25.833Z,21.46
2022-08-19T13:47:59.205Z,21.44
2022-08-19T13:50:32.312Z,21.44
2022-08-19T13:52:59.827Z,21.26
2022-08-19T13:55:27.914Z,21.34
2022-08-19T13:57:57.951Z,21.39
2022-08-19T14:00:28.793Z,21.40
2022-08-19T14:02:58.375Z,21.35
2022-08-19T14:05:27.841Z,21.34
2022-08-19T14:07:55.572Z,21.38
2022-08-19T14:10:24.780Z,21.42
2022-08-19T14:12:56.603Z,21.35
2022-08-19T14:15:24.294Z,21.23
2022-08-19T14:17:52.178Z,21.23
2022-08-19T14:20:19.770Z,21.18
2022-08-19T14:22:48.764Z,21.25
2022-08-19T14:25:21.750Z,21.22
2022-08-19T14:27:49.515Z,21.22
2022-08-19T14:30:22.087Z,21.25
2022-08-19T14:32:48.970Z,21.22
2022-08-19T14:35:17.434Z,21.23
2022-08-19T14:37:46.339Z,21.31
2022-08-19T14:40:17.059Z,21.14
2022-08-19T14:42:44.771Z,21.27
2022-08-19T14:45:13.411Z,21.24
2022-08-19T14:47:40.967Z,21.24
2022-08-19T14:50:18.438Z,21.36
2022-08-19T14:52:48.765Z,21.23
2022-08-19T14:55:18.261Z,21.38
2022-08-19T14:57:45.990Z,21.43
2022-08-19T15:00:14.346Z,21.35
2022-08-19T15:02:42.421Z,21.35
2022-08-19T15:05:09.899Z,21.51
2022-08-19T15:07:38.101Z,21.44
2022-08-19T15:10:08.073Z,21.51
2022-08-19T15:12:43.264Z,21.47
2022-08-19T15:15:14.105Z,21.55
2022-08-19T15:17:46.051Z,21.56
2022-08-19T15:20:23.640Z,21.54
2022-08-19T15:22:50.810Z,21.55
2022-08-19T15:25:19.803Z,21.53
2022-08-19T15:27:47.187Z,21.47
2022-08-19T15:30:29.257Z,21.57
2022-08-19T15:32:59.039Z,21.53
2022-08-19T15:35:26.725Z,21.59
2022-08-19T15:37:54.934Z,21.55
2022-08-19T15:40:23.824Z,21.60
2022-08-19T15:42:50.797Z,21.54
2022-08-19T15:45:21.381Z,21.62
2022-08-19T15:47:48.860Z,21.61
2022-08-19T15:50:21.357Z,21.60
2022-08-19T15:52:58.700Z,21.59
2022-08-19T15:55:34.571Z,21.43
2022-08-19T15:58:34.398Z,21.53
2022-08-19T16:01:24.019Z,21.55
2022-08-19T16:04:14.701Z,21.57
2022-08-19T16:06:50.521Z,21.51
2022-08-19T16:09:26.436Z,21.56
2022-08-19T16:11:56.947Z,21.44
2022-08-19T16:14:26.429Z,21.41
2022-08-19T16:16:54.932Z,21.61
2022-08-19T16:19:21.808Z,21.50
2022-08-19T16:21:52.413Z,21.50
2022-08-19T16:24:25.657Z,21.53
2022-08-19T16:26:52.720Z,21.55
2022-08-19T16:29:34.040Z,21.64
2022-08-19T16:32:11.660Z,21.60
2022-08-19T16:34:41.366Z,21.68
2022-08-19T16:37:10.051Z,21.69
2022-08-19T16:39:37.570Z,21.39
2022-08-19T16:42:07.342Z,21.73
2022-08-19T16:44:35.365Z,21.74
2022-08-19T16:47:02.923Z,21.73
2022-08-19T16:49:52.821Z,21.68
2022-08-19T16:52:20.671Z,21.72
2022-08-19T16:54:48.063Z,21.59
2022-08-19T16:57:15.038Z,21.59
2022-08-19T16:59:43.829Z,21.70
2022-08-19T17:02:16.197Z,21.69
2022-08-19T17:04:43.087Z,21.67
2022-08-19T17:07:10.733Z,21.68
2022-08-19T17:09:38.128Z,21.58
2022-08-19T17:12:05.784Z,21.68
2022-08-19T17:14:32.659Z,21.61
2022-08-19T17:16:59.487Z,21.58
2022-08-19T17:19:28.310Z,21.63
2022-08-19T17:21:57.710Z,21.64
2022-08-19T17:24:24.554Z,21.66
2022-08-19T17:26:51.358Z,21.69
2022-08-19T17:29:18.183Z,21.61
2022-08-19T17:31:44.990Z,21.66
2022-08-19T17:34:11.850Z,21.68
2022-08-19T17:36:38.980Z,21.63
2022-08-19T17:39:06.009Z,21.54
2022-08-19T17:41:36.626Z,21.61
2022-08-19T17:44:04.177Z,21.51
2022-08-19T17:46:31.458Z,21.50
2022-08-19T17:48:58.528Z,21.55
2022-08-19T17:51:47.093Z,21.48
2022-08-19T17:54:18.595Z,21.54
2022-08-19T17:56:46.381Z,21.53
2022-08-19T17:59:15.237Z,21.37
2022-08-19T18:01:53.756Z,21.56
2022-08-19T18:04:24.976Z,21.47
2022-08-19T18:06:55.045Z,21.56
2022-08-19T18:09:42.686Z,21.53
2022-08-19T18:12:15.662Z,21.50
2022-08-19T18:14:42.662Z,21.51
2022-08-19T18:17:13.162Z,21.48
2022-08-19T18:19:43.908Z,21.49
2022-08-19T18:22:36.452Z,21.46
2022-08-19T18:25:11.504Z,21.41
2022-08-19T18:27:39.166Z,21.41
2022-08-19T18:30:07.856Z,21.47
2022-08-19T18:32:38.258Z,21.45
2022-08-19T18:35:24.109Z,21.37
2022-08-19T18:37:51.502Z,21.37
2022-08-19T18:40:40.919Z,21.35
2022-08-19T18:43:23.191Z,21.29
2022-08-19T18:46:09.632Z,21.26
2022-08-19T18:48:56.684Z,21.19
2022-08-19T18:51:28.458Z,21.19
2022-08-19T18:53:59.019Z,21.18
2022-08-19T18:56:31.782Z,21.21
2022-08-19T18:59:00.325Z,21.20
2022-08-19T19:01:39.494Z,21.18
2022-08-19T19:04:12.008Z,21.23
2022-08-19T19:06:41.374Z,21.17
2022-08-19T19:09:21.207Z,21.14
2022-08-19T19:11:54.026Z,21.14
2022-08-19T19:14:48.685Z,21.15
2022-08-19T19:17:16.714Z,21.11
2022-08-19T19:19:44.290Z,21.05
2022-08-19T19:22:15.268Z,20.99
2022-08-19T19:24:45.105Z,21.01
2022-08-19T19:27:14.406Z,21.06
2022-08-19T19:29:43.545Z,21.06
2022-08-19T19:32:29.369Z,21.13
2022-08-19T19:34:56.573Z,20.99
2022-08-19T19:37:23.395Z,20.97
2022-08-19T19:39:50.292Z,20.96
2022-08-19T19:42:21.157Z,21.02
2022-08-19T19:44:51.845Z,20.98
2022-08-19T19:47:19.495Z,20.97
2022-08-19T19:50:13.942Z,20.95
2022-08-19T19:52:38.993Z,20.92
2022-08-19T19:55:06.690Z,20.90
2022-08-19T19:57:33.517Z,20.82
2022-08-19T20:00:00.451Z,20.84
2022-08-19T20:02:27.624Z,20.83
2022-08-19T20:04:56.197Z,20.90
2022-08-19T20:07:43.006Z,20.78
2022-08-19T20:10:09.835Z,20.81
2022-08-19T20:12:36.717Z,20.79
2022-08-19T20:15:04.757Z,20.67
2022-08-19T20:17:32.490Z,20.82
2022-08-19T20:19:59.565Z,20.85
2022-08-19T20:22:26.375Z,20.89
2022-08-19T20:24:53.836Z,20.79
2022-08-19T20:27:25.091Z,20.84
2022-08-19T20:29:52.803Z,20.67
2022-08-19T20:32:19.683Z,20.77
2022-08-19T20:34:49.045Z,20.66
2022-08-19T20:37:15.920Z,20.68
2022-08-19T20:39:42.798Z,20.83
2022-08-19T20:42:09.803Z,20.70
2022-08-19T20:44:37.724Z,20.70
2022-08-19T20:47:04.768Z,20.71
2022-08-19T20:49:32.440Z,20.83
2022-08-19T20:51:59.329Z,20.76
2022-08-19T20:54:27.051Z,20.74
2022-08-19T20:56:54.352Z,20.85
2022-08-19T20:59:22.957Z,20.86
2022-08-19T21:01:53.575Z,20.87
2022-08-19T21:04:21.436Z,20.84
2022-08-19T21:06:49.992Z,20.84
2022-08-19T21:09:17.048Z,20.81
2022-08-19T21:11:44.096Z,20.80
2022-08-19T21:14:11.033Z,20.83
2022-08-19T21:16:37.855Z,20.72
2022-08-19T21:19:04.851Z,20.86
2022-08-19T21:21:33.029Z,20.81
2022-08-19T21:23:59.992Z,20.77
2022-08-19T21:26:27.169Z,20.66
2022-08-19T21:28:54.022Z,20.66
2022-08-19T21:31:21.123Z,20.72
2022-08-19T21:33:48.043Z,20.74
2022-08-19T21:36:14.905Z,20.66
2022-08-19T21:38:41.729Z,20.69
2022-08-19T21:41:09.003Z,20.76
2022-08-19T21:43:37.770Z,20.78
2022-08-19T21:46:05.228Z,20.66
2022-08-19T21:48:32.815Z,20.77
2022-08-19T21:50:59.627Z,20.75
2022-08-19T21:53:34.214Z,20.83
2022-08-19T21:56:03.149Z,20.60
2022-08-19T21:58:30.853Z,20.67
2022-08-19T22:01:05.825Z,20.66
2022-08-19T22:03:37.708Z,20.78
2022-08-19T22:06:05.648Z,20.77
2022-08-19T22:08:32.619Z,20.75
2022-08-19T22:10:59.512Z,20.69
2022-08-19T22:13:26.887Z,20.78
2022-08-19T22:15:55.216Z,20.74
2022-08-19T22:18:22.092Z,20.69
2022-08-19T22:20:48.988Z,20.68
2022-08-19T22:23:15.960Z,20.77
2022-08-19T22:25:47.082Z,20.76
2022-08-19T22:28:18.962Z,20.79
2022-08-19T22:30:55.821Z,20.86
2022-08-19T22:33:23.415Z,20.75
2022-08-19T22:35:52.749Z,20.81
2022-08-19T22:38:19.719Z,20.71
2022-08-19T22:40:49.583Z,20.79
2022-08-19T22:43:19.773Z,20.72
2022-08-19T22:45:48.348Z,20.71
2022-08-19T22:48:18.290Z,20.78
2022-08-19T22:51:07.265Z,20.83
2022-08-19T22:53:37.417Z,20.78
2022-08-19T22:56:06.557Z,20.77
2022-08-19T22:58:33.470Z,20.73
2022-08-19T23:01:01.641Z,20.73
2022-08-19T23:03:29.133Z,20.72
2022-08-19T23:05:56.236Z,20.68
2022-08-19T23:08:24.097Z,20.68
2022-08-19T23:10:50.919Z,20.62
2022-08-19T23:13:18.125Z,20.69
2022-08-19T23:15:46.996Z,20.66
2022-08-19T23:18:14.220Z,20.65
2022-08-19T23:20:43.236Z,20.45
2022-08-19T23:23:13.045Z,20.60
2022-08-19T23:25:40.493Z,20.62
2022-08-19T23:28:26.403Z,20.57
2022-08-19T23:30:54.210Z,20.65
2022-08-19T23:33:46.856Z,20.58
2022-08-19T23:36:17.847Z,20.65
2022-08-19T23:38:46.803Z,20.55
2022-08-19T23:41:15.416Z,20.57
2022-08-19T23:43:44.181Z,20.64
2022-08-19T23:46:14.770Z,20.61
2022-08-19T23:48:55.560Z,20.45
2022-08-19T23:51:22.736Z,20.42
2022-08-19T23:53:49.580Z,20.47
2022-08-19T23:56:16.389Z,20.41
2022-08-19T23:58:43.265Z,20.48
